sensor_id;sensor_type;location;lat;lon;timestamp;temperature;humidity
54082;DHT22;39986;50.770;0.266;2023-03-24T00:01:40;10.00;99.90
54082;DHT22;39986;50.770;0.266;2023-03-24T00:04:06;10.00;99.90
54082;DHT22;39986;50.770;0.266;2023-03-24T00:06:31;10.00;99.90
54082;DHT22;39986;50.770;0.266;2023-03-24T00:08:59;10.00;99.90
54082;DHT22;39986;50.770;0.266;2023-03-24T00:11:25;10.00;99.90
54082;DHT22;39986;50.770;0.266;2023-03-24T00:13:50;10.00;99.90
54082;DHT22;39986;50.770;0.266;2023-03-24T00:16:16;10.00;99.90
54082;DHT22;39986;50.770;0.266;2023-03-24T00:18:43;10.10;99.90
54082;DHT22;39986;50.770;0.266;2023-03-24T00:21:09;10.00;99.90
54082;DHT22;39986;50.770;0.266;2023-03-24T00:23:36;10.00;99.90
54082;DHT22;39986;50.770;0.266;2023-03-24T00:26:03;10.10;99.90
54082;DHT22;39986;50.770;0.266;2023-03-24T00:28:33;10.00;99.90
54082;DHT22;39986;50.770;0.266;2023-03-24T00:30:59;10.00;99.90
54082;DHT22;39986;50.770;0.266;2023-03-24T00:33:26;10.10;99.90
54082;DHT22;39986;50.770;0.266;2023-03-24T00:35:52;10.10;99.90
54082;DHT22;39986;50.770;0.266;2023-03-24T00:38:18;10.10;99.90
54082;DHT22;39986;50.770;0.266;2023-03-24T00:40:47;10.00;99.90
54082;DHT22;39986;50.770;0.266;2023-03-24T00:43:13;10.00;99.90
54082;DHT22;39986;50.770;0.266;2023-03-24T00:45:38;10.00;99.90
54082;DHT22;39986;50.770;0.266;2023-03-24T00:48:13;10.00;99.90
54082;DHT22;39986;50.770;0.266;2023-03-24T00:50:43;10.10;99.90
54082;DHT22;39986;50.770;0.266;2023-03-24T00:53:09;10.10;99.90
54082;DHT22;39986;50.770;0.266;2023-03-24T00:55:35;10.00;99.90
54082;DHT22;39986;50.770;0.266;2023-03-24T00:58:02;10.00;99.90
54082;DHT22;39986;50.770;0.266;2023-03-24T01:00:28;10.00;99.90
54082;DHT22;39986;50.770;0.266;2023-03-24T01:02:55;10.00;99.90
54082;DHT22;39986;50.770;0.266;2023-03-24T01:05:26;10.00;99.90
54082;DHT22;39986;50.770;0.266;2023-03-24T01:07:52;10.00;99.90
54082;DHT22;39986;50.770;0.266;2023-03-24T01:10:21;9.90;99.90
54082;DHT22;39986;50.770;0.266;2023-03-24T01:12:50;9.90;99.90
54082;DHT22;39986;50.770;0.266;2023-03-24T01:15:19;9.90;99.90
54082;DHT22;39986;50.770;0.266;2023-03-24T01:17:45;9.90;99.90
54082;DHT22;39986;50.770;0.266;2023-03-24T01:20:13;9.80;99.90
54082;DHT22;39986;50.770;0.266;2023-03-24T01:22:40;9.80;99.90
54082;DHT22;39986;50.770;0.266;2023-03-24T01:25:26;9.80;99.90
54082;DHT22;39986;50.770;0.266;2023-03-24T01:27:52;9.70;99.90
54082;DHT22;39986;50.770;0.266;2023-03-24T01:30:22;9.70;99.90
54082;DHT22;39986;50.770;0.266;2023-03-24T01:32:48;9.80;99.90
54082;DHT22;39986;50.770;0.266;2023-03-24T01:35:14;9.80;99.90
54082;DHT22;39986;50.770;0.266;2023-03-24T01:37:41;9.70;99.90
54082;DHT22;39986;50.770;0.266;2023-03-24T01:40:08;9.70;99.90
54082;DHT22;39986;50.770;0.266;2023-03-24T01:42:35;9.60;99.90
54082;DHT22;39986;50.770;0.266;2023-03-24T01:45:32;9.70;99.90
54082;DHT22;39986;50.770;0.266;2023-03-24T01:47:47;9.70;99.90
54082;DHT22;39986;50.770;0.266;2023-03-24T01:50:12;9.70;99.90
54082;DHT22;39986;50.770;0.266;2023-03-24T01:52:39;9.80;99.90
54082;DHT22;39986;50.770;0.266;2023-03-24T01:55:13;9.70;99.90
54082;DHT22;39986;50.770;0.266;2023-03-24T01:57:46;9.80;99.90
54082;DHT22;39986;50.770;0.266;2023-03-24T02:00:15;9.80;99.90
54082;DHT22;39986;50.770;0.266;2023-03-24T02:02:46;9.80;99.90
54082;DHT22;39986;50.770;0.266;2023-03-24T02:05:14;9.70;99.90
54082;DHT22;39986;50.770;0.266;2023-03-24T02:10:30;9.80;99.90
54082;DHT22;39986;50.770;0.266;2023-03-24T02:12:56;9.80;99.90
54082;DHT22;39986;50.770;0.266;2023-03-24T02:15:21;9.80;99.90
54082;DHT22;39986;50.770;0.266;2023-03-24T02:18:05;9.70;99.90
54082;DHT22;39986;50.770;0.266;2023-03-24T02:31:32;9.50;99.90
54082;DHT22;39986;50.770;0.266;2023-03-24T02:36:54;9.50;99.90
54082;DHT22;39986;50.770;0.266;2023-03-24T02:47:00;9.40;99.90
54082;DHT22;39986;50.770;0.266;2023-03-24T02:49:36;9.40;99.90
54082;DHT22;39986;50.770;0.266;2023-03-24T02:54:35;9.50;99.90
54082;DHT22;39986;50.770;0.266;2023-03-24T02:59:38;9.60;99.90
54082;DHT22;39986;50.770;0.266;2023-03-24T03:02:24;9.50;99.90
54082;DHT22;39986;50.770;0.266;2023-03-24T03:04:53;9.50;99.90
54082;DHT22;39986;50.770;0.266;2023-03-24T03:07:20;9.40;99.90
54082;DHT22;39986;50.770;0.266;2023-03-24T03:09:50;9.40;99.90
54082;DHT22;39986;50.770;0.266;2023-03-24T03:12:17;9.40;99.90
54082;DHT22;39986;50.770;0.266;2023-03-24T03:14:45;9.30;99.90
54082;DHT22;39986;50.770;0.266;2023-03-24T03:17:22;9.30;99.90
54082;DHT22;39986;50.770;0.266;2023-03-24T03:19:50;9.20;99.90
54082;DHT22;39986;50.770;0.266;2023-03-24T03:22:20;9.30;99.90
54082;DHT22;39986;50.770;0.266;2023-03-24T03:24:48;9.30;99.90
54082;DHT22;39986;50.770;0.266;2023-03-24T03:27:24;9.20;99.90
54082;DHT22;39986;50.770;0.266;2023-03-24T03:29:58;9.20;99.90
54082;DHT22;39986;50.770;0.266;2023-03-24T03:32:29;9.30;99.90
54082;DHT22;39986;50.770;0.266;2023-03-24T03:34:56;9.30;99.90
54082;DHT22;39986;50.770;0.266;2023-03-24T03:39:58;9.30;99.90
54082;DHT22;39986;50.770;0.266;2023-03-24T03:42:25;9.30;99.90
54082;DHT22;39986;50.770;0.266;2023-03-24T03:44:50;9.20;99.90
54082;DHT22;39986;50.770;0.266;2023-03-24T03:47:16;9.20;99.90
54082;DHT22;39986;50.770;0.266;2023-03-24T03:49:43;9.20;99.90
54082;DHT22;39986;50.770;0.266;2023-03-24T03:52:09;9.30;99.90
54082;DHT22;39986;50.770;0.266;2023-03-24T03:54:35;9.30;99.90
54082;DHT22;39986;50.770;0.266;2023-03-24T03:57:01;9.20;99.90
54082;DHT22;39986;50.770;0.266;2023-03-24T03:59:31;9.10;99.90
54082;DHT22;39986;50.770;0.266;2023-03-24T04:02:07;9.10;99.90
54082;DHT22;39986;50.770;0.266;2023-03-24T04:04:52;9.00;99.90
54082;DHT22;39986;50.770;0.266;2023-03-24T04:07:28;8.90;99.90
54082;DHT22;39986;50.770;0.266;2023-03-24T04:10:33;8.90;99.90
54082;DHT22;39986;50.770;0.266;2023-03-24T04:13:02;8.90;99.90
54082;DHT22;39986;50.770;0.266;2023-03-24T04:18:12;8.90;99.90
54082;DHT22;39986;50.770;0.266;2023-03-24T04:20:46;8.90;99.90
54082;DHT22;39986;50.770;0.266;2023-03-24T04:23:14;8.90;99.90
54082;DHT22;39986;50.770;0.266;2023-03-24T04:25:45;8.90;99.90
54082;DHT22;39986;50.770;0.266;2023-03-24T04:28:18;8.90;99.90
54082;DHT22;39986;50.770;0.266;2023-03-24T04:30:59;9.00;99.90
54082;DHT22;39986;50.770;0.266;2023-03-24T04:36:04;9.00;99.90
54082;DHT22;39986;50.770;0.266;2023-03-24T04:38:31;9.10;99.90
54082;DHT22;39986;50.770;0.266;2023-03-24T04:40:59;9.10;99.90
54082;DHT22;39986;50.770;0.266;2023-03-24T04:43:27;9.10;99.90
54082;DHT22;39986;50.770;0.266;2023-03-24T04:46:01;9.10;99.90
54082;DHT22;39986;50.770;0.266;2023-03-24T04:48:28;9.10;99.90
54082;DHT22;39986;50.770;0.266;2023-03-24T04:50:55;9.20;99.90
54082;DHT22;39986;50.770;0.266;2023-03-24T04:53:21;9.20;99.90
54082;DHT22;39986;50.770;0.266;2023-03-24T04:56:13;9.80;99.90
54082;DHT22;39986;50.770;0.266;2023-03-24T04:58:32;9.20;99.90
54082;DHT22;39986;50.770;0.266;2023-03-24T05:00:58;9.30;99.90
54082;DHT22;39986;50.770;0.266;2023-03-24T05:03:23;9.40;99.90
54082;DHT22;39986;50.770;0.266;2023-03-24T05:05:50;9.40;99.90
54082;DHT22;39986;50.770;0.266;2023-03-24T05:08:16;9.40;99.90
54082;DHT22;39986;50.770;0.266;2023-03-24T05:10:43;9.50;99.90
54082;DHT22;39986;50.770;0.266;2023-03-24T05:13:08;9.60;99.90
54082;DHT22;39986;50.770;0.266;2023-03-24T05:15:34;9.60;99.90
54082;DHT22;39986;50.770;0.266;2023-03-24T05:18:00;9.60;99.90
54082;DHT22;39986;50.770;0.266;2023-03-24T05:20:26;9.60;99.90
54082;DHT22;39986;50.770;0.266;2023-03-24T05:22:51;9.70;99.90
54082;DHT22;39986;50.770;0.266;2023-03-24T05:25:17;9.70;99.90
54082;DHT22;39986;50.770;0.266;2023-03-24T05:27:43;9.70;99.90
54082;DHT22;39986;50.770;0.266;2023-03-24T05:30:09;9.60;99.90
54082;DHT22;39986;50.770;0.266;2023-03-24T05:32:35;9.60;99.90
54082;DHT22;39986;50.770;0.266;2023-03-24T05:35:01;9.60;99.90
54082;DHT22;39986;50.770;0.266;2023-03-24T05:37:26;9.60;99.90
54082;DHT22;39986;50.770;0.266;2023-03-24T05:39:52;9.60;99.90
54082;DHT22;39986;50.770;0.266;2023-03-24T05:42:18;9.60;99.90
54082;DHT22;39986;50.770;0.266;2023-03-24T05:44:43;9.50;99.90
54082;DHT22;39986;50.770;0.266;2023-03-24T05:47:10;9.50;99.90
54082;DHT22;39986;50.770;0.266;2023-03-24T05:49:37;9.50;99.90
54082;DHT22;39986;50.770;0.266;2023-03-24T05:52:03;10.00;99.90
54082;DHT22;39986;50.770;0.266;2023-03-24T05:54:28;9.40;99.90
54082;DHT22;39986;50.770;0.266;2023-03-24T05:56:54;9.40;99.90
54082;DHT22;39986;50.770;0.266;2023-03-24T05:59:20;9.40;99.90
54082;DHT22;39986;50.770;0.266;2023-03-24T06:01:47;9.40;99.90
54082;DHT22;39986;50.770;0.266;2023-03-24T06:04:12;9.30;99.90
54082;DHT22;39986;50.770;0.266;2023-03-24T06:06:38;9.30;99.90
54082;DHT22;39986;50.770;0.266;2023-03-24T06:09:05;9.30;99.90
54082;DHT22;39986;50.770;0.266;2023-03-24T06:11:31;9.30;99.90
54082;DHT22;39986;50.770;0.266;2023-03-24T06:13:56;9.30;99.90
54082;DHT22;39986;50.770;0.266;2023-03-24T06:16:25;9.40;99.90
54082;DHT22;39986;50.770;0.266;2023-03-24T06:18:50;9.40;99.90
54082;DHT22;39986;50.770;0.266;2023-03-24T06:21:17;9.40;99.90
54082;DHT22;39986;50.770;0.266;2023-03-24T06:23:43;9.40;99.90
54082;DHT22;39986;50.770;0.266;2023-03-24T06:26:09;9.40;99.90
54082;DHT22;39986;50.770;0.266;2023-03-24T06:28:35;9.40;99.90
54082;DHT22;39986;50.770;0.266;2023-03-24T06:31:06;9.30;99.90
54082;DHT22;39986;50.770;0.266;2023-03-24T06:33:39;9.30;99.90
54082;DHT22;39986;50.770;0.266;2023-03-24T06:36:04;9.30;99.90
54082;DHT22;39986;50.770;0.266;2023-03-24T06:38:30;9.40;99.90
54082;DHT22;39986;50.770;0.266;2023-03-24T06:41:02;9.50;99.90
54082;DHT22;39986;50.770;0.266;2023-03-24T06:43:29;9.60;99.90
54082;DHT22;39986;50.770;0.266;2023-03-24T06:45:54;9.60;99.90
54082;DHT22;39986;50.770;0.266;2023-03-24T06:48:20;9.50;99.90
54082;DHT22;39986;50.770;0.266;2023-03-24T06:50:46;9.50;99.90
54082;DHT22;39986;50.770;0.266;2023-03-24T06:53:11;9.50;99.90
54082;DHT22;39986;50.770;0.266;2023-03-24T06:55:37;9.50;99.90
54082;DHT22;39986;50.770;0.266;2023-03-24T06:58:03;9.50;99.90
54082;DHT22;39986;50.770;0.266;2023-03-24T07:00:28;9.70;99.90
54082;DHT22;39986;50.770;0.266;2023-03-24T07:02:54;9.70;99.90
54082;DHT22;39986;50.770;0.266;2023-03-24T07:05:20;9.80;99.90
54082;DHT22;39986;50.770;0.266;2023-03-24T07:07:46;9.90;99.90
54082;DHT22;39986;50.770;0.266;2023-03-24T07:10:12;9.90;99.90
54082;DHT22;39986;50.770;0.266;2023-03-24T07:12:38;10.00;99.90
54082;DHT22;39986;50.770;0.266;2023-03-24T07:15:04;10.00;99.90
54082;DHT22;39986;50.770;0.266;2023-03-24T07:17:31;10.00;99.90
54082;DHT22;39986;50.770;0.266;2023-03-24T07:19:57;10.00;99.90
54082;DHT22;39986;50.770;0.266;2023-03-24T07:22:23;10.00;99.90
54082;DHT22;39986;50.770;0.266;2023-03-24T07:24:48;10.10;99.90
54082;DHT22;39986;50.770;0.266;2023-03-24T07:27:14;10.20;99.90
54082;DHT22;39986;50.770;0.266;2023-03-24T07:29:40;10.30;99.90
54082;DHT22;39986;50.770;0.266;2023-03-24T07:32:05;10.30;99.90
54082;DHT22;39986;50.770;0.266;2023-03-24T07:34:32;10.20;99.90
54082;DHT22;39986;50.770;0.266;2023-03-24T07:36:58;10.20;99.90
54082;DHT22;39986;50.770;0.266;2023-03-24T07:39:23;10.30;99.90
54082;DHT22;39986;50.770;0.266;2023-03-24T07:41:49;10.30;99.90
54082;DHT22;39986;50.770;0.266;2023-03-24T07:44:14;10.40;99.90
54082;DHT22;39986;50.770;0.266;2023-03-24T07:46:40;10.50;99.90
54082;DHT22;39986;50.770;0.266;2023-03-24T07:49:05;10.60;99.90
54082;DHT22;39986;50.770;0.266;2023-03-24T07:51:31;10.70;99.90
54082;DHT22;39986;50.770;0.266;2023-03-24T07:53:57;10.80;99.90
54082;DHT22;39986;50.770;0.266;2023-03-24T07:56:23;10.80;99.90
54082;DHT22;39986;50.770;0.266;2023-03-24T07:58:48;10.90;99.90
54082;DHT22;39986;50.770;0.266;2023-03-24T08:01:14;10.90;99.90
54082;DHT22;39986;50.770;0.266;2023-03-24T08:03:40;10.80;99.90
54082;DHT22;39986;50.770;0.266;2023-03-24T08:06:08;10.80;99.90
54082;DHT22;39986;50.770;0.266;2023-03-24T08:08:34;10.90;99.90
54082;DHT22;39986;50.770;0.266;2023-03-24T08:11:00;11.00;99.90
54082;DHT22;39986;50.770;0.266;2023-03-24T08:13:26;11.00;99.90
54082;DHT22;39986;50.770;0.266;2023-03-24T08:15:51;11.10;99.90
54082;DHT22;39986;50.770;0.266;2023-03-24T08:18:21;11.20;99.90
54082;DHT22;39986;50.770;0.266;2023-03-24T08:20:54;11.10;99.90
54082;DHT22;39986;50.770;0.266;2023-03-24T08:23:21;11.10;99.90
54082;DHT22;39986;50.770;0.266;2023-03-24T08:25:47;11.00;99.90
54082;DHT22;39986;50.770;0.266;2023-03-24T08:28:13;11.00;99.90
54082;DHT22;39986;50.770;0.266;2023-03-24T08:30:39;11.10;99.90
54082;DHT22;39986;50.770;0.266;2023-03-24T08:33:11;11.20;99.90
54082;DHT22;39986;50.770;0.266;2023-03-24T08:35:37;11.30;99.90
54082;DHT22;39986;50.770;0.266;2023-03-24T08:38:04;11.20;99.90
54082;DHT22;39986;50.770;0.266;2023-03-24T08:40:30;11.40;99.90
54082;DHT22;39986;50.770;0.266;2023-03-24T08:42:57;11.40;99.90
54082;DHT22;39986;50.770;0.266;2023-03-24T08:45:23;11.60;99.90
54082;DHT22;39986;50.770;0.266;2023-03-24T08:47:52;11.80;99.90
54082;DHT22;39986;50.770;0.266;2023-03-24T08:50:18;11.80;99.90
54082;DHT22;39986;50.770;0.266;2023-03-24T08:52:44;11.80;99.90
54082;DHT22;39986;50.770;0.266;2023-03-24T08:55:13;12.00;99.90
54082;DHT22;39986;50.770;0.266;2023-03-24T08:57:39;12.20;99.90
54082;DHT22;39986;50.770;0.266;2023-03-24T09:00:05;12.30;99.90
54082;DHT22;39986;50.770;0.266;2023-03-24T09:02:49;12.10;99.90
54082;DHT22;39986;50.770;0.266;2023-03-24T09:05:16;12.10;99.90
54082;DHT22;39986;50.770;0.266;2023-03-24T09:07:43;12.20;99.90
54082;DHT22;39986;50.770;0.266;2023-03-24T09:10:09;12.20;99.90
54082;DHT22;39986;50.770;0.266;2023-03-24T09:12:35;12.20;99.90
54082;DHT22;39986;50.770;0.266;2023-03-24T09:15:01;12.40;99.90
54082;DHT22;39986;50.770;0.266;2023-03-24T09:17:26;12.30;99.90
54082;DHT22;39986;50.770;0.266;2023-03-24T09:19:52;11.90;99.90
54082;DHT22;39986;50.770;0.266;2023-03-24T09:22:17;11.90;99.90
54082;DHT22;39986;50.770;0.266;2023-03-24T09:24:43;11.80;99.90
54082;DHT22;39986;50.770;0.266;2023-03-24T09:27:09;12.00;99.90
54082;DHT22;39986;50.770;0.266;2023-03-24T09:29:35;12.40;99.90
54082;DHT22;39986;50.770;0.266;2023-03-24T09:32:00;12.60;99.90
54082;DHT22;39986;50.770;0.266;2023-03-24T09:34:26;12.70;99.90
54082;DHT22;39986;50.770;0.266;2023-03-24T09:36:51;12.60;99.90
54082;DHT22;39986;50.770;0.266;2023-03-24T09:39:17;12.60;99.90
54082;DHT22;39986;50.770;0.266;2023-03-24T09:41:43;12.70;99.90
54082;DHT22;39986;50.770;0.266;2023-03-24T09:44:30;12.80;99.90
54082;DHT22;39986;50.770;0.266;2023-03-24T09:49:42;13.10;99.90
54082;DHT22;39986;50.770;0.266;2023-03-24T09:52:10;13.00;99.90
54082;DHT22;39986;50.770;0.266;2023-03-24T09:54:56;13.30;99.90
54082;DHT22;39986;50.770;0.266;2023-03-24T09:59:53;13.20;99.90
54082;DHT22;39986;50.770;0.266;2023-03-24T10:02:19;13.10;99.90
54082;DHT22;39986;50.770;0.266;2023-03-24T10:04:46;13.00;99.90
54082;DHT22;39986;50.770;0.266;2023-03-24T10:07:23;13.00;99.90
54082;DHT22;39986;50.770;0.266;2023-03-24T10:09:55;13.10;99.90
54082;DHT22;39986;50.770;0.266;2023-03-24T10:12:35;13.30;99.90
54082;DHT22;39986;50.770;0.266;2023-03-24T10:22:59;13.40;99.90
54082;DHT22;39986;50.770;0.266;2023-03-24T10:28:15;13.40;99.90
54082;DHT22;39986;50.770;0.266;2023-03-24T10:30:43;13.00;99.90
54082;DHT22;39986;50.770;0.266;2023-03-24T10:33:12;12.60;99.90
54082;DHT22;39986;50.770;0.266;2023-03-24T10:35:40;12.70;99.90
54082;DHT22;39986;50.770;0.266;2023-03-24T10:38:18;12.70;99.90
54082;DHT22;39986;50.770;0.266;2023-03-24T10:40:44;12.70;99.90
54082;DHT22;39986;50.770;0.266;2023-03-24T10:43:11;12.90;99.90
54082;DHT22;39986;50.770;0.266;2023-03-24T10:45:37;13.90;99.90
54082;DHT22;39986;50.770;0.266;2023-03-24T10:48:03;14.70;99.90
54082;DHT22;39986;50.770;0.266;2023-03-24T10:50:30;14.60;99.90
54082;DHT22;39986;50.770;0.266;2023-03-24T10:52:56;14.20;99.90
54082;DHT22;39986;50.770;0.266;2023-03-24T10:55:22;14.40;99.90
54082;DHT22;39986;50.770;0.266;2023-03-24T10:57:52;15.20;99.90
54082;DHT22;39986;50.770;0.266;2023-03-24T11:00:23;15.30;99.90
54082;DHT22;39986;50.770;0.266;2023-03-24T11:03:06;15.70;99.90
54082;DHT22;39986;50.770;0.266;2023-03-24T11:05:36;16.40;99.90
54082;DHT22;39986;50.770;0.266;2023-03-24T11:10:47;18.00;99.90
54082;DHT22;39986;50.770;0.266;2023-03-24T11:13:19;18.20;99.90
54082;DHT22;39986;50.770;0.266;2023-03-24T11:16:04;17.40;99.90
54082;DHT22;39986;50.770;0.266;2023-03-24T11:18:30;16.50;99.90
54082;DHT22;39986;50.770;0.266;2023-03-24T11:20:57;16.10;99.90
54082;DHT22;39986;50.770;0.266;2023-03-24T11:23:25;16.90;99.90
54082;DHT22;39986;50.770;0.266;2023-03-24T11:26:06;18.00;99.90
54082;DHT22;39986;50.770;0.266;2023-03-24T11:28:34;18.80;99.90
54082;DHT22;39986;50.770;0.266;2023-03-24T11:31:05;19.50;99.90
54082;DHT22;39986;50.770;0.266;2023-03-24T11:33:33;20.00;99.90
54082;DHT22;39986;50.770;0.266;2023-03-24T11:36:00;19.00;99.90
54082;DHT22;39986;50.770;0.266;2023-03-24T11:38:29;19.10;99.90
54082;DHT22;39986;50.770;0.266;2023-03-24T11:40:56;19.20;99.90
54082;DHT22;39986;50.770;0.266;2023-03-24T11:43:26;18.80;99.90
54082;DHT22;39986;50.770;0.266;2023-03-24T11:46:11;18.90;99.90
54082;DHT22;39986;50.770;0.266;2023-03-24T11:48:48;18.20;99.90
54082;DHT22;39986;50.770;0.266;2023-03-24T11:51:22;17.20;99.90
54082;DHT22;39986;50.770;0.266;2023-03-24T11:53:50;16.50;99.90
54082;DHT22;39986;50.770;0.266;2023-03-24T11:56:22;16.00;99.90
54082;DHT22;39986;50.770;0.266;2023-03-24T11:58:55;15.90;99.90
54082;DHT22;39986;50.770;0.266;2023-03-24T12:01:26;16.40;99.90
54082;DHT22;39986;50.770;0.266;2023-03-24T12:12:20;20.30;99.90
54082;DHT22;39986;50.770;0.266;2023-03-24T12:15:01;20.70;99.90
54082;DHT22;39986;50.770;0.266;2023-03-24T12:17:39;21.40;99.90
54082;DHT22;39986;50.770;0.266;2023-03-24T12:22:34;20.40;99.90
54082;DHT22;39986;50.770;0.266;2023-03-24T12:32:54;19.00;99.90
54082;DHT22;39986;50.770;0.266;2023-03-24T12:35:24;17.90;99.90
54082;DHT22;39986;50.770;0.266;2023-03-24T12:43:18;19.20;99.90
54082;DHT22;39986;50.770;0.266;2023-03-24T12:45:52;19.80;99.90
54082;DHT22;39986;50.770;0.266;2023-03-24T12:58:52;18.30;99.90
54082;DHT22;39986;50.770;0.266;2023-03-24T13:01:19;16.60;99.90
54082;DHT22;39986;50.770;0.266;2023-03-24T13:03:49;16.40;99.90
54082;DHT22;39986;50.770;0.266;2023-03-24T13:06:25;17.00;99.90
54082;DHT22;39986;50.770;0.266;2023-03-24T13:09:13;18.20;99.90
54082;DHT22;39986;50.770;0.266;2023-03-24T13:11:45;19.10;99.90
54082;DHT22;39986;50.770;0.266;2023-03-24T13:14:14;19.50;99.90
54082;DHT22;39986;50.770;0.266;2023-03-24T13:16:41;20.30;99.90
54082;DHT22;39986;50.770;0.266;2023-03-24T13:19:11;21.30;99.90
54082;DHT22;39986;50.770;0.266;2023-03-24T13:21:40;21.00;99.90
54082;DHT22;39986;50.770;0.266;2023-03-24T13:24:06;21.00;99.90
54082;DHT22;39986;50.770;0.266;2023-03-24T13:26:36;20.90;99.90
54082;DHT22;39986;50.770;0.266;2023-03-24T13:37:36;22.70;99.90
54082;DHT22;39986;50.770;0.266;2023-03-24T13:39:45;22.00;99.90
54082;DHT22;39986;50.770;0.266;2023-03-24T13:42:30;22.80;99.90
54082;DHT22;39986;50.770;0.266;2023-03-24T13:44:57;23.00;99.90
54082;DHT22;39986;50.770;0.266;2023-03-24T13:47:24;23.30;99.90
54082;DHT22;39986;50.770;0.266;2023-03-24T13:49:58;23.40;99.90
54082;DHT22;39986;50.770;0.266;2023-03-24T13:54:52;23.30;99.90
54082;DHT22;39986;50.770;0.266;2023-03-24T13:57:20;22.80;99.90
54082;DHT22;39986;50.770;0.266;2023-03-24T14:00:01;22.30;99.90
54082;DHT22;39986;50.770;0.266;2023-03-24T14:02:39;22.50;99.90
54082;DHT22;39986;50.770;0.266;2023-03-24T14:15:25;19.20;99.90
54082;DHT22;39986;50.770;0.266;2023-03-24T14:17:52;20.70;99.90
54082;DHT22;39986;50.770;0.266;2023-03-24T14:22:50;21.60;99.90
54082;DHT22;39986;50.770;0.266;2023-03-24T14:27:42;22.20;99.90
54082;DHT22;39986;50.770;0.266;2023-03-24T14:32:43;22.10;99.90
54082;DHT22;39986;50.770;0.266;2023-03-24T14:37:54;23.00;99.90
54082;DHT22;39986;50.770;0.266;2023-03-24T14:40:25;23.20;99.90
54082;DHT22;39986;50.770;0.266;2023-03-24T14:42:55;23.40;99.90
54082;DHT22;39986;50.770;0.266;2023-03-24T14:48:30;22.20;99.90
54082;DHT22;39986;50.770;0.266;2023-03-24T14:51:02;21.40;99.90
54082;DHT22;39986;50.770;0.266;2023-03-24T14:53:28;21.30;99.90
54082;DHT22;39986;50.770;0.266;2023-03-24T14:55:54;20.60;99.90
54082;DHT22;39986;50.770;0.266;2023-03-24T14:58:26;21.10;99.90
54082;DHT22;39986;50.770;0.266;2023-03-24T15:00:56;21.80;99.90
54082;DHT22;39986;50.770;0.266;2023-03-24T15:03:29;22.60;99.90
54082;DHT22;39986;50.770;0.266;2023-03-24T15:06:03;22.80;99.90
54082;DHT22;39986;50.770;0.266;2023-03-24T15:08:28;21.80;99.90
54082;DHT22;39986;50.770;0.266;2023-03-24T15:13:30;20.80;99.90
54082;DHT22;39986;50.770;0.266;2023-03-24T15:15:57;21.00;99.90
54082;DHT22;39986;50.770;0.266;2023-03-24T15:18:23;22.20;99.90
54082;DHT22;39986;50.770;0.266;2023-03-24T15:20:50;21.70;99.90
54082;DHT22;39986;50.770;0.266;2023-03-24T15:23:21;20.30;99.90
54082;DHT22;39986;50.770;0.266;2023-03-24T15:25:47;19.00;99.90
54082;DHT22;39986;50.770;0.266;2023-03-24T15:28:23;18.40;99.90
54082;DHT22;39986;50.770;0.266;2023-03-24T15:30:49;17.40;99.90
54082;DHT22;39986;50.770;0.266;2023-03-24T15:33:15;17.00;99.90
54082;DHT22;39986;50.770;0.266;2023-03-24T15:35:42;16.80;99.90
54082;DHT22;39986;50.770;0.266;2023-03-24T15:38:16;16.60;99.90
54082;DHT22;39986;50.770;0.266;2023-03-24T15:40:50;16.10;99.90
54082;DHT22;39986;50.770;0.266;2023-03-24T15:43:20;15.80;99.90
54082;DHT22;39986;50.770;0.266;2023-03-24T15:45:50;15.10;99.90
54082;DHT22;39986;50.770;0.266;2023-03-24T15:48:17;14.90;99.90
54082;DHT22;39986;50.770;0.266;2023-03-24T15:50:53;14.90;99.90
54082;DHT22;39986;50.770;0.266;2023-03-24T15:53:24;14.90;99.90
54082;DHT22;39986;50.770;0.266;2023-03-24T15:56:00;14.80;99.90
54082;DHT22;39986;50.770;0.266;2023-03-24T15:58:27;14.30;99.90
54082;DHT22;39986;50.770;0.266;2023-03-24T16:00:57;14.00;99.90
54082;DHT22;39986;50.770;0.266;2023-03-24T16:03:24;13.80;99.90
54082;DHT22;39986;50.770;0.266;2023-03-24T16:05:53;13.70;99.90
54082;DHT22;39986;50.770;0.266;2023-03-24T16:11:21;13.40;99.90
54082;DHT22;39986;50.770;0.266;2023-03-24T16:13:41;13.40;99.90
54082;DHT22;39986;50.770;0.266;2023-03-24T16:18:40;13.40;99.90
54082;DHT22;39986;50.770;0.266;2023-03-24T16:21:10;13.40;99.90
54082;DHT22;39986;50.770;0.266;2023-03-24T16:23:37;13.30;99.90
54082;DHT22;39986;50.770;0.266;2023-03-24T16:26:03;13.30;99.90
54082;DHT22;39986;50.770;0.266;2023-03-24T16:28:28;13.30;99.90
54082;DHT22;39986;50.770;0.266;2023-03-24T16:30:56;13.20;99.90
54082;DHT22;39986;50.770;0.266;2023-03-24T16:33:22;13.20;99.90
54082;DHT22;39986;50.770;0.266;2023-03-24T16:35:48;13.10;99.90
54082;DHT22;39986;50.770;0.266;2023-03-24T16:38:13;13.00;99.90
54082;DHT22;39986;50.770;0.266;2023-03-24T16:40:45;12.90;99.90
54082;DHT22;39986;50.770;0.266;2023-03-24T16:43:12;12.70;99.90
54082;DHT22;39986;50.770;0.266;2023-03-24T16:45:39;12.60;99.90
54082;DHT22;39986;50.770;0.266;2023-03-24T16:48:05;12.40;99.90
54082;DHT22;39986;50.770;0.266;2023-03-24T16:50:31;12.40;99.90
54082;DHT22;39986;50.770;0.266;2023-03-24T16:52:58;12.30;99.90
54082;DHT22;39986;50.770;0.266;2023-03-24T16:55:24;12.20;99.90
54082;DHT22;39986;50.770;0.266;2023-03-24T16:57:49;12.30;99.90
54082;DHT22;39986;50.770;0.266;2023-03-24T17:00:15;12.30;99.90
54082;DHT22;39986;50.770;0.266;2023-03-24T17:02:41;12.30;99.90
54082;DHT22;39986;50.770;0.266;2023-03-24T17:05:15;12.40;99.90
54082;DHT22;39986;50.770;0.266;2023-03-24T17:07:42;12.40;99.90
54082;DHT22;39986;50.770;0.266;2023-03-24T17:10:08;12.50;99.90
54082;DHT22;39986;50.770;0.266;2023-03-24T17:12:33;12.40;99.90
54082;DHT22;39986;50.770;0.266;2023-03-24T17:14:59;12.40;99.90
54082;DHT22;39986;50.770;0.266;2023-03-24T17:17:25;12.30;99.90
54082;DHT22;39986;50.770;0.266;2023-03-24T17:19:51;12.30;99.90
54082;DHT22;39986;50.770;0.266;2023-03-24T17:22:16;12.20;99.90
54082;DHT22;39986;50.770;0.266;2023-03-24T17:24:43;12.10;99.90
54082;DHT22;39986;50.770;0.266;2023-03-24T17:27:15;12.00;99.90
54082;DHT22;39986;50.770;0.266;2023-03-24T17:29:43;11.90;99.90
54082;DHT22;39986;50.770;0.266;2023-03-24T17:32:09;11.80;99.90
54082;DHT22;39986;50.770;0.266;2023-03-24T17:34:35;11.80;99.90
54082;DHT22;39986;50.770;0.266;2023-03-24T17:37:03;11.70;99.90
54082;DHT22;39986;50.770;0.266;2023-03-24T17:39:28;11.50;99.90
54082;DHT22;39986;50.770;0.266;2023-03-24T17:41:54;11.70;99.90
54082;DHT22;39986;50.770;0.266;2023-03-24T17:44:23;11.70;99.90
54082;DHT22;39986;50.770;0.266;2023-03-24T17:46:49;11.70;99.90
54082;DHT22;39986;50.770;0.266;2023-03-24T17:49:15;11.70;99.90
54082;DHT22;39986;50.770;0.266;2023-03-24T17:51:40;11.70;99.90
54082;DHT22;39986;50.770;0.266;2023-03-24T17:54:06;11.70;99.90
54082;DHT22;39986;50.770;0.266;2023-03-24T17:56:31;11.70;99.90